sensor_id;sensor_type;location;lat;lon;timestamp;temperature;humidity
25554;DHT22;13446;50.926;5.332;2022-12-29T00:01:17;11.80;99.90
25554;DHT22;13446;50.926;5.332;2022-12-29T00:03:45;11.90;99.90
25554;DHT22;13446;50.926;5.332;2022-12-29T00:06:10;11.90;99.90
25554;DHT22;13446;50.926;5.332;2022-12-29T00:08:36;11.90;99.90
25554;DHT22;13446;50.926;5.332;2022-12-29T00:11:08;12.00;99.90
25554;DHT22;13446;50.926;5.332;2022-12-29T00:13:34;12.00;99.90
25554;DHT22;13446;50.926;5.332;2022-12-29T00:16:18;12.00;99.90
25554;DHT22;13446;50.926;5.332;2022-12-29T00:18:44;12.10;99.90
25554;DHT22;13446;50.926;5.332;2022-12-29T00:21:16;12.00;99.90
25554;DHT22;13446;50.926;5.332;2022-12-29T00:24:00;12.20;99.90
25554;DHT22;13446;50.926;5.332;2022-12-29T00:26:45;12.20;99.90
25554;DHT22;13446;50.926;5.332;2022-12-29T00:29:30;12.30;99.90
25554;DHT22;13446;50.926;5.332;2022-12-29T00:32:17;12.40;99.90
25554;DHT22;13446;50.926;5.332;2022-12-29T00:35:01;12.50;99.90
25554;DHT22;13446;50.926;5.332;2022-12-29T00:37:33;12.50;99.90
25554;DHT22;13446;50.926;5.332;2022-12-29T00:40:17;12.60;99.90
25554;DHT22;13446;50.926;5.332;2022-12-29T00:43:01;12.60;99.90
25554;DHT22;13446;50.926;5.332;2022-12-29T00:45:45;12.60;99.90
25554;DHT22;13446;50.926;5.332;2022-12-29T00:48:11;12.60;99.90
25554;DHT22;13446;50.926;5.332;2022-12-29T00:50:37;12.60;99.90
25554;DHT22;13446;50.926;5.332;2022-12-29T00:53:02;12.50;99.90
25554;DHT22;13446;50.926;5.332;2022-12-29T00:55:28;12.60;99.90
25554;DHT22;13446;50.926;5.332;2022-12-29T00:57:53;12.60;99.90
25554;DHT22;13446;50.926;5.332;2022-12-29T01:00:20;12.50;99.90
25554;DHT22;13446;50.926;5.332;2022-12-29T01:02:46;12.60;99.90
25554;DHT22;13446;50.926;5.332;2022-12-29T01:05:11;12.50;99.90
25554;DHT22;13446;50.926;5.332;2022-12-29T01:07:37;12.50;99.90
25554;DHT22;13446;50.926;5.332;2022-12-29T01:10:02;12.50;99.90
25554;DHT22;13446;50.926;5.332;2022-12-29T01:12:37;12.50;99.90
25554;DHT22;13446;50.926;5.332;2022-12-29T01:15:06;12.60;99.90
25554;DHT22;13446;50.926;5.332;2022-12-29T01:17:31;12.50;99.90
25554;DHT22;13446;50.926;5.332;2022-12-29T01:19:57;12.40;99.90
25554;DHT22;13446;50.926;5.332;2022-12-29T01:22:24;12.50;99.90
25554;DHT22;13446;50.926;5.332;2022-12-29T01:24:49;12.50;99.90
25554;DHT22;13446;50.926;5.332;2022-12-29T01:27:15;12.50;99.90
25554;DHT22;13446;50.926;5.332;2022-12-29T01:29:41;12.50;99.90
25554;DHT22;13446;50.926;5.332;2022-12-29T01:32:07;12.50;99.90
25554;DHT22;13446;50.926;5.332;2022-12-29T01:34:32;12.50;99.90
25554;DHT22;13446;50.926;5.332;2022-12-29T01:36:58;12.40;99.90
25554;DHT22;13446;50.926;5.332;2022-12-29T01:39:23;12.40;99.90
25554;DHT22;13446;50.926;5.332;2022-12-29T01:41:49;12.50;99.90
25554;DHT22;13446;50.926;5.332;2022-12-29T01:46:59;12.50;99.90
25554;DHT22;13446;50.926;5.332;2022-12-29T01:49:26;12.60;99.90
25554;DHT22;13446;50.926;5.332;2022-12-29T01:51:53;12.70;99.90
25554;DHT22;13446;50.926;5.332;2022-12-29T01:56:50;12.70;99.90
25554;DHT22;13446;50.926;5.332;2022-12-29T01:59:18;12.80;99.90
25554;DHT22;13446;50.926;5.332;2022-12-29T02:01:45;12.90;99.90
25554;DHT22;13446;50.926;5.332;2022-12-29T02:04:11;12.80;99.90
25554;DHT22;13446;50.926;5.332;2022-12-29T02:06:39;12.70;99.90
25554;DHT22;13446;50.926;5.332;2022-12-29T02:09:06;12.80;99.90
25554;DHT22;13446;50.926;5.332;2022-12-29T02:11:31;12.80;99.90
25554;DHT22;13446;50.926;5.332;2022-12-29T02:13:57;12.90;99.90
25554;DHT22;13446;50.926;5.332;2022-12-29T02:18:54;12.60;99.90
25554;DHT22;13446;50.926;5.332;2022-12-29T02:31:45;12.50;99.90
25554;DHT22;13446;50.926;5.332;2022-12-29T02:34:22;12.40;99.90
25554;DHT22;13446;50.926;5.332;2022-12-29T02:49:40;12.30;99.90
25554;DHT22;13446;50.926;5.332;2022-12-29T02:52:12;12.40;99.90
25554;DHT22;13446;50.926;5.332;2022-12-29T02:54:40;12.30;99.90
25554;DHT22;13446;50.926;5.332;2022-12-29T02:59:37;12.30;99.90
25554;DHT22;13446;50.926;5.332;2022-12-29T03:12:35;12.30;99.90
25554;DHT22;13446;50.926;5.332;2022-12-29T03:15:23;12.20;99.90
25554;DHT22;13446;50.926;5.332;2022-12-29T03:18:15;12.30;99.90
25554;DHT22;13446;50.926;5.332;2022-12-29T03:20:49;12.40;99.90
25554;DHT22;13446;50.926;5.332;2022-12-29T03:23:17;12.30;99.90
25554;DHT22;13446;50.926;5.332;2022-12-29T03:25:45;12.30;99.90
25554;DHT22;13446;50.926;5.332;2022-12-29T03:28:13;12.30;99.90
25554;DHT22;13446;50.926;5.332;2022-12-29T03:30:41;12.30;99.90
25554;DHT22;13446;50.926;5.332;2022-12-29T03:33:10;12.30;99.90
25554;DHT22;13446;50.926;5.332;2022-12-29T03:35:37;12.30;99.90
25554;DHT22;13446;50.926;5.332;2022-12-29T03:38:14;12.40;99.90
25554;DHT22;13446;50.926;5.332;2022-12-29T03:40:42;12.40;99.90
25554;DHT22;13446;50.926;5.332;2022-12-29T03:43:09;12.40;99.90
25554;DHT22;13446;50.926;5.332;2022-12-29T03:45:35;12.40;99.90
25554;DHT22;13446;50.926;5.332;2022-12-29T03:48:02;12.50;99.90
25554;DHT22;13446;50.926;5.332;2022-12-29T03:50:28;12.50;99.90
25554;DHT22;13446;50.926;5.332;2022-12-29T03:52:53;12.40;99.90
25554;DHT22;13446;50.926;5.332;2022-12-29T03:55:19;12.40;99.90
25554;DHT22;13446;50.926;5.332;2022-12-29T03:57:44;12.50;99.90
25554;DHT22;13446;50.926;5.332;2022-12-29T04:00:10;12.40;99.90
25554;DHT22;13446;50.926;5.332;2022-12-29T04:02:36;12.40;99.90
25554;DHT22;13446;50.926;5.332;2022-12-29T04:05:01;12.30;99.90
25554;DHT22;13446;50.926;5.332;2022-12-29T04:07:27;12.40;99.90
25554;DHT22;13446;50.926;5.332;2022-12-29T04:09:53;12.40;99.90
25554;DHT22;13446;50.926;5.332;2022-12-29T04:12:18;12.40;99.90
25554;DHT22;13446;50.926;5.332;2022-12-29T04:14:44;12.40;99.90
25554;DHT22;13446;50.926;5.332;2022-12-29T04:17:09;12.30;99.90
25554;DHT22;13446;50.926;5.332;2022-12-29T04:19:35;12.20;99.90
25554;DHT22;13446;50.926;5.332;2022-12-29T04:22:00;12.20;99.90
25554;DHT22;13446;50.926;5.332;2022-12-29T04:24:26;12.10;99.90
25554;DHT22;13446;50.926;5.332;2022-12-29T04:26:51;12.10;99.90
25554;DHT22;13446;50.926;5.332;2022-12-29T04:29:17;12.00;99.90
25554;DHT22;13446;50.926;5.332;2022-12-29T04:31:42;11.90;99.90
25554;DHT22;13446;50.926;5.332;2022-12-29T04:34:08;11.80;99.90
25554;DHT22;13446;50.926;5.332;2022-12-29T04:36:34;11.80;99.90
25554;DHT22;13446;50.926;5.332;2022-12-29T04:38:59;11.80;99.90
25554;DHT22;13446;50.926;5.332;2022-12-29T04:41:25;11.70;99.90
25554;DHT22;13446;50.926;5.332;2022-12-29T04:43:51;11.70;99.90
25554;DHT22;13446;50.926;5.332;2022-12-29T04:46:16;11.70;99.90
25554;DHT22;13446;50.926;5.332;2022-12-29T04:48:42;11.80;99.90
25554;DHT22;13446;50.926;5.332;2022-12-29T04:51:08;11.80;99.90
25554;DHT22;13446;50.926;5.332;2022-12-29T04:53:33;11.90;99.90
25554;DHT22;13446;50.926;5.332;2022-12-29T04:55:59;11.80;99.90
25554;DHT22;13446;50.926;5.332;2022-12-29T04:58:24;11.80;99.90
25554;DHT22;13446;50.926;5.332;2022-12-29T05:00:50;11.80;99.90
25554;DHT22;13446;50.926;5.332;2022-12-29T05:03:16;11.60;99.90
25554;DHT22;13446;50.926;5.332;2022-12-29T05:05:41;11.70;99.90
25554;DHT22;13446;50.926;5.332;2022-12-29T05:08:07;11.70;99.90
25554;DHT22;13446;50.926;5.332;2022-12-29T05:10:32;11.80;99.90
25554;DHT22;13446;50.926;5.332;2022-12-29T05:12:58;11.80;99.90
25554;DHT22;13446;50.926;5.332;2022-12-29T05:15:24;11.90;99.90
25554;DHT22;13446;50.926;5.332;2022-12-29T05:17:49;11.90;99.90
25554;DHT22;13446;50.926;5.332;2022-12-29T05:20:15;11.80;99.90
25554;DHT22;13446;50.926;5.332;2022-12-29T05:22:40;11.80;99.90
25554;DHT22;13446;50.926;5.332;2022-12-29T05:25:06;11.80;99.90
25554;DHT22;13446;50.926;5.332;2022-12-29T05:27:32;11.90;99.90
25554;DHT22;13446;50.926;5.332;2022-12-29T05:29:58;11.90;99.90
25554;DHT22;13446;50.926;5.332;2022-12-29T05:32:24;11.90;99.90
25554;DHT22;13446;50.926;5.332;2022-12-29T05:34:49;11.90;99.90
25554;DHT22;13446;50.926;5.332;2022-12-29T05:37:15;11.90;99.90
25554;DHT22;13446;50.926;5.332;2022-12-29T05:39:40;12.00;99.90
25554;DHT22;13446;50.926;5.332;2022-12-29T05:42:06;11.90;99.90
25554;DHT22;13446;50.926;5.332;2022-12-29T05:44:32;12.00;99.90
25554;DHT22;13446;50.926;5.332;2022-12-29T05:46:57;12.00;99.90
25554;DHT22;13446;50.926;5.332;2022-12-29T05:49:23;12.10;99.90
25554;DHT22;13446;50.926;5.332;2022-12-29T05:51:48;12.10;99.90
25554;DHT22;13446;50.926;5.332;2022-12-29T05:54:14;12.10;99.90
25554;DHT22;13446;50.926;5.332;2022-12-29T05:56:39;12.20;99.90
25554;DHT22;13446;50.926;5.332;2022-12-29T05:59:05;12.10;99.90
25554;DHT22;13446;50.926;5.332;2022-12-29T06:01:30;12.10;99.90
25554;DHT22;13446;50.926;5.332;2022-12-29T06:03:56;12.00;99.90
25554;DHT22;13446;50.926;5.332;2022-12-29T06:06:22;12.00;99.90
25554;DHT22;13446;50.926;5.332;2022-12-29T06:08:47;12.10;99.90
25554;DHT22;13446;50.926;5.332;2022-12-29T06:11:13;12.00;99.90
25554;DHT22;13446;50.926;5.332;2022-12-29T06:13:39;12.00;99.90
25554;DHT22;13446;50.926;5.332;2022-12-29T06:16:05;12.00;99.90
25554;DHT22;13446;50.926;5.332;2022-12-29T06:18:30;12.00;99.90
25554;DHT22;13446;50.926;5.332;2022-12-29T06:21:00;12.00;99.90
25554;DHT22;13446;50.926;5.332;2022-12-29T06:23:26;11.90;99.90
25554;DHT22;13446;50.926;5.332;2022-12-29T06:25:51;11.90;99.90
25554;DHT22;13446;50.926;5.332;2022-12-29T06:28:17;11.90;99.90
25554;DHT22;13446;50.926;5.332;2022-12-29T06:30:46;12.00;99.90
25554;DHT22;13446;50.926;5.332;2022-12-29T06:33:12;12.00;99.90
25554;DHT22;13446;50.926;5.332;2022-12-29T06:35:38;12.10;99.90
25554;DHT22;13446;50.926;5.332;2022-12-29T06:38:05;11.90;99.90
25554;DHT22;13446;50.926;5.332;2022-12-29T06:40:31;11.70;99.90
25554;DHT22;13446;50.926;5.332;2022-12-29T06:42:56;11.70;99.90
25554;DHT22;13446;50.926;5.332;2022-12-29T06:45:22;11.70;99.90
25554;DHT22;13446;50.926;5.332;2022-12-29T06:47:47;11.80;99.90
25554;DHT22;13446;50.926;5.332;2022-12-29T06:50:13;11.80;99.90
25554;DHT22;13446;50.926;5.332;2022-12-29T06:52:38;11.80;99.90
25554;DHT22;13446;50.926;5.332;2022-12-29T06:55:04;11.80;99.90
25554;DHT22;13446;50.926;5.332;2022-12-29T06:57:30;11.80;99.90
25554;DHT22;13446;50.926;5.332;2022-12-29T06:59:55;11.60;99.90
25554;DHT22;13446;50.926;5.332;2022-12-29T07:02:21;11.60;99.90
25554;DHT22;13446;50.926;5.332;2022-12-29T07:04:47;11.70;99.90
25554;DHT22;13446;50.926;5.332;2022-12-29T07:07:12;11.70;99.90
25554;DHT22;13446;50.926;5.332;2022-12-29T07:09:38;11.80;99.90
25554;DHT22;13446;50.926;5.332;2022-12-29T07:12:03;11.90;99.90
25554;DHT22;13446;50.926;5.332;2022-12-29T07:14:29;11.90;99.90
25554;DHT22;13446;50.926;5.332;2022-12-29T07:16:54;11.90;99.90
25554;DHT22;13446;50.926;5.332;2022-12-29T07:19:20;11.80;99.90
25554;DHT22;13446;50.926;5.332;2022-12-29T07:21:45;11.70;99.90
25554;DHT22;13446;50.926;5.332;2022-12-29T07:24:11;11.70;99.90
25554;DHT22;13446;50.926;5.332;2022-12-29T07:26:37;11.70;99.90
25554;DHT22;13446;50.926;5.332;2022-12-29T07:29:03;11.80;99.90
25554;DHT22;13446;50.926;5.332;2022-12-29T07:31:28;11.80;99.90
25554;DHT22;13446;50.926;5.332;2022-12-29T07:33:54;11.80;99.90
25554;DHT22;13446;50.926;5.332;2022-12-29T07:36:20;11.80;99.90
25554;DHT22;13446;50.926;5.332;2022-12-29T07:38:45;11.70;99.90
25554;DHT22;13446;50.926;5.332;2022-12-29T07:41:11;11.60;99.90
25554;DHT22;13446;50.926;5.332;2022-12-29T07:43:37;11.60;99.90
25554;DHT22;13446;50.926;5.332;2022-12-29T07:46:02;11.60;99.90
25554;DHT22;13446;50.926;5.332;2022-12-29T07:48:28;11.50;99.90
25554;DHT22;13446;50.926;5.332;2022-12-29T07:50:53;11.50;99.90
25554;DHT22;13446;50.926;5.332;2022-12-29T07:53:20;11.60;99.90
25554;DHT22;13446;50.926;5.332;2022-12-29T07:55:46;11.50;99.90
25554;DHT22;13446;50.926;5.332;2022-12-29T07:58:12;11.50;99.90
25554;DHT22;13446;50.926;5.332;2022-12-29T08:00:37;11.50;99.90
25554;DHT22;13446;50.926;5.332;2022-12-29T08:03:03;11.40;99.90
25554;DHT22;13446;50.926;5.332;2022-12-29T08:05:30;11.40;99.90
25554;DHT22;13446;50.926;5.332;2022-12-29T08:07:56;11.40;99.90
25554;DHT22;13446;50.926;5.332;2022-12-29T08:10:22;11.40;99.90
25554;DHT22;13446;50.926;5.332;2022-12-29T08:12:47;11.40;99.90
25554;DHT22;13446;50.926;5.332;2022-12-29T08:15:13;11.40;99.90
25554;DHT22;13446;50.926;5.332;2022-12-29T08:17:38;11.40;99.90
25554;DHT22;13446;50.926;5.332;2022-12-29T08:20:04;11.50;99.90
25554;DHT22;13446;50.926;5.332;2022-12-29T08:22:30;11.50;99.90
25554;DHT22;13446;50.926;5.332;2022-12-29T08:24:55;11.60;99.90
25554;DHT22;13446;50.926;5.332;2022-12-29T08:27:21;11.60;99.90
25554;DHT22;13446;50.926;5.332;2022-12-29T08:29:48;11.60;99.90
25554;DHT22;13446;50.926;5.332;2022-12-29T08:32:15;11.80;99.90
25554;DHT22;13446;50.926;5.332;2022-12-29T08:34:42;11.80;99.90
25554;DHT22;13446;50.926;5.332;2022-12-29T08:37:07;11.80;99.90
25554;DHT22;13446;50.926;5.332;2022-12-29T08:39:33;11.80;99.90
25554;DHT22;13446;50.926;5.332;2022-12-29T08:41:59;11.90;99.90
25554;DHT22;13446;50.926;5.332;2022-12-29T08:44:25;12.10;99.90
25554;DHT22;13446;50.926;5.332;2022-12-29T08:46:50;12.10;99.90
25554;DHT22;13446;50.926;5.332;2022-12-29T08:49:16;12.10;99.90
25554;DHT22;13446;50.926;5.332;2022-12-29T08:51:41;12.00;99.90
25554;DHT22;13446;50.926;5.332;2022-12-29T08:54:07;12.10;99.90
25554;DHT22;13446;50.926;5.332;2022-12-29T08:56:32;12.10;99.90
25554;DHT22;13446;50.926;5.332;2022-12-29T08:58:58;12.00;99.90
25554;DHT22;13446;50.926;5.332;2022-12-29T09:01:23;11.90;99.90
25554;DHT22;13446;50.926;5.332;2022-12-29T09:03:49;11.90;99.90
25554;DHT22;13446;50.926;5.332;2022-12-29T09:06:16;11.90;99.90
25554;DHT22;13446;50.926;5.332;2022-12-29T09:08:42;12.00;99.90
25554;DHT22;13446;50.926;5.332;2022-12-29T09:11:09;12.20;99.90
25554;DHT22;13446;50.926;5.332;2022-12-29T09:13:35;12.40;99.90
25554;DHT22;13446;50.926;5.332;2022-12-29T09:16:01;12.40;99.90
25554;DHT22;13446;50.926;5.332;2022-12-29T09:18:27;12.50;99.90
25554;DHT22;13446;50.926;5.332;2022-12-29T09:20:56;12.40;99.90
25554;DHT22;13446;50.926;5.332;2022-12-29T09:23:22;12.20;99.90
25554;DHT22;13446;50.926;5.332;2022-12-29T09:25:49;12.00;99.90
25554;DHT22;13446;50.926;5.332;2022-12-29T09:28:15;12.10;99.90
25554;DHT22;13446;50.926;5.332;2022-12-29T09:30:41;12.20;99.90
25554;DHT22;13446;50.926;5.332;2022-12-29T09:33:06;12.20;99.90
25554;DHT22;13446;50.926;5.332;2022-12-29T09:35:32;12.20;99.90
25554;DHT22;13446;50.926;5.332;2022-12-29T09:37:57;12.20;99.90
25554;DHT22;13446;50.926;5.332;2022-12-29T09:40:27;12.10;99.90
25554;DHT22;13446;50.926;5.332;2022-12-29T09:45:45;12.30;99.90
25554;DHT22;13446;50.926;5.332;2022-12-29T09:48:22;12.40;99.90
25554;DHT22;13446;50.926;5.332;2022-12-29T09:50:53;12.50;99.90
25554;DHT22;13446;50.926;5.332;2022-12-29T09:53:21;12.50;99.90
25554;DHT22;13446;50.926;5.332;2022-12-29T09:55:51;12.60;99.90
25554;DHT22;13446;50.926;5.332;2022-12-29T10:01:00;12.70;99.90
25554;DHT22;13446;50.926;5.332;2022-12-29T10:03:29;12.70;99.90
25554;DHT22;13446;50.926;5.332;2022-12-29T10:08:26;12.60;99.90
25554;DHT22;13446;50.926;5.332;2022-12-29T10:23:34;12.50;99.90
25554;DHT22;13446;50.926;5.332;2022-12-29T10:26:00;12.50;99.90
25554;DHT22;13446;50.926;5.332;2022-12-29T10:30:55;12.70;99.90
25554;DHT22;13446;50.926;5.332;2022-12-29T10:33:27;13.00;99.90
25554;DHT22;13446;50.926;5.332;2022-12-29T10:35:55;13.20;99.90
25554;DHT22;13446;50.926;5.332;2022-12-29T10:41:25;13.40;99.90
25554;DHT22;13446;50.926;5.332;2022-12-29T10:43:53;13.80;99.90
25554;DHT22;13446;50.926;5.332;2022-12-29T10:46:27;13.60;99.90
25554;DHT22;13446;50.926;5.332;2022-12-29T10:48:54;13.50;99.90
25554;DHT22;13446;50.926;5.332;2022-12-29T10:51:31;13.30;99.90
25554;DHT22;13446;50.926;5.332;2022-12-29T10:58:50;13.40;99.90
25554;DHT22;13446;50.926;5.332;2022-12-29T11:01:15;13.90;99.90
25554;DHT22;13446;50.926;5.332;2022-12-29T11:03:50;14.30;99.90
25554;DHT22;13446;50.926;5.332;2022-12-29T11:06:19;14.40;99.90
25554;DHT22;13446;50.926;5.332;2022-12-29T11:08:51;14.30;99.90
25554;DHT22;13446;50.926;5.332;2022-12-29T11:11:22;13.90;99.90
25554;DHT22;13446;50.926;5.332;2022-12-29T11:13:49;13.90;99.90
25554;DHT22;13446;50.926;5.332;2022-12-29T11:16:16;13.70;99.90
25554;DHT22;13446;50.926;5.332;2022-12-29T11:18:52;13.50;99.90
25554;DHT22;13446;50.926;5.332;2022-12-29T11:24:33;13.40;99.90
25554;DHT22;13446;50.926;5.332;2022-12-29T11:29:42;13.20;99.90
25554;DHT22;13446;50.926;5.332;2022-12-29T11:32:26;13.20;99.90
25554;DHT22;13446;50.926;5.332;2022-12-29T11:34:52;13.20;99.90
25554;DHT22;13446;50.926;5.332;2022-12-29T11:37:37;13.00;99.90
25554;DHT22;13446;50.926;5.332;2022-12-29T11:40:17;13.10;99.90
25554;DHT22;13446;50.926;5.332;2022-12-29T11:43:02;12.80;99.90
25554;DHT22;13446;50.926;5.332;2022-12-29T11:45:30;12.60;99.90
25554;DHT22;13446;50.926;5.332;2022-12-29T11:47:59;12.60;99.90
25554;DHT22;13446;50.926;5.332;2022-12-29T11:50:30;12.60;99.90
25554;DHT22;13446;50.926;5.332;2022-12-29T11:53:01;12.70;99.90
25554;DHT22;13446;50.926;5.332;2022-12-29T11:55:28;12.60;99.90
25554;DHT22;13446;50.926;5.332;2022-12-29T11:57:54;12.70;99.90
25554;DHT22;13446;50.926;5.332;2022-12-29T12:00:21;12.70;99.90
25554;DHT22;13446;50.926;5.332;2022-12-29T12:05:33;12.60;99.90
25554;DHT22;13446;50.926;5.332;2022-12-29T12:08:07;12.60;99.90
25554;DHT22;13446;50.926;5.332;2022-12-29T12:10:36;12.60;99.90
25554;DHT22;13446;50.926;5.332;2022-12-29T12:15:54;12.60;99.90
25554;DHT22;13446;50.926;5.332;2022-12-29T12:21:23;12.60;99.90
25554;DHT22;13446;50.926;5.332;2022-12-29T12:26:18;12.90;99.90
25554;DHT22;13446;50.926;5.332;2022-12-29T12:31:18;13.10;99.90
25554;DHT22;13446;50.926;5.332;2022-12-29T12:33:46;12.90;99.90
25554;DHT22;13446;50.926;5.332;2022-12-29T12:41:21;12.60;99.90
25554;DHT22;13446;50.926;5.332;2022-12-29T12:44:07;12.70;99.90
25554;DHT22;13446;50.926;5.332;2022-12-29T12:52:12;13.00;99.90
25554;DHT22;13446;50.926;5.332;2022-12-29T12:54:46;13.10;99.90
25554;DHT22;13446;50.926;5.332;2022-12-29T12:57:21;13.00;99.90
25554;DHT22;13446;50.926;5.332;2022-12-29T13:00:07;13.00;99.90
25554;DHT22;13446;50.926;5.332;2022-12-29T13:18:55;12.60;99.90
25554;DHT22;13446;50.926;5.332;2022-12-29T13:26:35;12.50;99.90
25554;DHT22;13446;50.926;5.332;2022-12-29T13:29:18;12.60;99.90
25554;DHT22;13446;50.926;5.332;2022-12-29T13:36:59;12.60;99.90
25554;DHT22;13446;50.926;5.332;2022-12-29T13:39:27;12.60;99.90
25554;DHT22;13446;50.926;5.332;2022-12-29T13:41:56;12.70;99.90
25554;DHT22;13446;50.926;5.332;2022-12-29T13:46:47;12.50;99.90
25554;DHT22;13446;50.926;5.332;2022-12-29T13:49:15;12.40;99.90
25554;DHT22;13446;50.926;5.332;2022-12-29T13:54:52;12.30;99.90
25554;DHT22;13446;50.926;5.332;2022-12-29T13:59:53;12.40;99.90
25554;DHT22;13446;50.926;5.332;2022-12-29T14:05:37;12.30;99.90
25554;DHT22;13446;50.926;5.332;2022-12-29T14:08:03;12.20;99.90
25554;DHT22;13446;50.926;5.332;2022-12-29T14:10:45;12.20;99.90
25554;DHT22;13446;50.926;5.332;2022-12-29T14:13:18;12.10;99.90
25554;DHT22;13446;50.926;5.332;2022-12-29T14:15:46;12.10;99.90
25554;DHT22;13446;50.926;5.332;2022-12-29T14:28:25;11.60;99.90
25554;DHT22;13446;50.926;5.332;2022-12-29T14:30:52;11.50;99.90
25554;DHT22;13446;50.926;5.332;2022-12-29T14:33:18;11.40;99.90
25554;DHT22;13446;50.926;5.332;2022-12-29T14:35:44;11.40;99.90
25554;DHT22;13446;50.926;5.332;2022-12-29T14:38:24;11.30;99.90
25554;DHT22;13446;50.926;5.332;2022-12-29T14:40:51;11.20;99.90
25554;DHT22;13446;50.926;5.332;2022-12-29T14:43:24;11.10;99.90
25554;DHT22;13446;50.926;5.332;2022-12-29T14:46:09;11.00;99.90
25554;DHT22;13446;50.926;5.332;2022-12-29T14:48:41;11.00;99.90
25554;DHT22;13446;50.926;5.332;2022-12-29T14:51:18;11.10;99.90
25554;DHT22;13446;50.926;5.332;2022-12-29T14:56:10;11.10;99.90
25554;DHT22;13446;50.926;5.332;2022-12-29T15:04:21;10.80;99.90
25554;DHT22;13446;50.926;5.332;2022-12-29T15:06:49;10.80;99.90
25554;DHT22;13446;50.926;5.332;2022-12-29T15:09:37;10.90;99.90
25554;DHT22;13446;50.926;5.332;2022-12-29T15:14:53;11.00;99.90
25554;DHT22;13446;50.926;5.332;2022-12-29T15:17:24;11.00;99.90
25554;DHT22;13446;50.926;5.332;2022-12-29T15:19:50;10.80;99.90
25554;DHT22;13446;50.926;5.332;2022-12-29T15:22:15;10.90;99.90
25554;DHT22;13446;50.926;5.332;2022-12-29T15:24:41;10.80;99.90
25554;DHT22;13446;50.926;5.332;2022-12-29T15:27:10;10.80;99.90
25554;DHT22;13446;50.926;5.332;2022-12-29T15:29:41;10.80;99.90
25554;DHT22;13446;50.926;5.332;2022-12-29T15:32:25;10.80;99.90
25554;DHT22;13446;50.926;5.332;2022-12-29T15:34:52;10.80;99.90
25554;DHT22;13446;50.926;5.332;2022-12-29T15:37:20;10.80;99.90
25554;DHT22;13446;50.926;5.332;2022-12-29T15:39:50;10.80;99.90
25554;DHT22;13446;50.926;5.332;2022-12-29T15:44:44;10.50;99.90
25554;DHT22;13446;50.926;5.332;2022-12-29T15:47:23;10.40;99.90
25554;DHT22;13446;50.926;5.332;2022-12-29T15:49:50;10.40;99.90
25554;DHT22;13446;50.926;5.332;2022-12-29T15:52:21;10.30;99.90
25554;DHT22;13446;50.926;5.332;2022-12-29T15:54:48;10.30;99.90
25554;DHT22;13446;50.926;5.332;2022-12-29T15:57:28;10.20;99.90
25554;DHT22;13446;50.926;5.332;2022-12-29T15:59:54;10.10;99.90
25554;DHT22;13446;50.926;5.332;2022-12-29T16:02:23;10.20;99.90
25554;DHT22;13446;50.926;5.332;2022-12-29T16:04:49;10.20;99.90
25554;DHT22;13446;50.926;5.332;2022-12-29T16:07:28;10.30;99.90
25554;DHT22;13446;50.926;5.332;2022-12-29T16:09:55;10.30;99.90
25554;DHT22;13446;50.926;5.332;2022-12-29T16:12:32;10.30;99.90
25554;DHT22;13446;50.926;5.332;2022-12-29T16:15:05;10.30;99.90
25554;DHT22;13446;50.926;5.332;2022-12-29T16:17:36;10.40;99.90
25554;DHT22;13446;50.926;5.332;2022-12-29T16:22:57;10.60;99.90
25554;DHT22;13446;50.926;5.332;2022-12-29T16:25:32;10.70;99.90
25554;DHT22;13446;50.926;5.332;2022-12-29T16:28:02;10.40;99.90
25554;DHT22;13446;50.926;5.332;2022-12-29T16:30:31;10.30;99.90
25554;DHT22;13446;50.926;5.332;2022-12-29T16:33:01;10.10;99.90
25554;DHT22;13446;50.926;5.332;2022-12-29T16:35:28;10.10;99.90
25554;DHT22;13446;50.926;5.332;2022-12-29T16:38:10;10.20;99.90
25554;DHT22;13446;50.926;5.332;2022-12-29T16:41:02;10.10;99.90
25554;DHT22;13446;50.926;5.332;2022-12-29T16:43:37;10.00;99.90
25554;DHT22;13446;50.926;5.332;2022-12-29T16:46:15;9.90;99.90
25554;DHT22;13446;50.926;5.332;2022-12-29T16:48:47;9.90;99.90
25554;DHT22;13446;50.926;5.332;2022-12-29T16:51:33;9.80;99.90
25554;DHT22;13446;50.926;5.332;2022-12-29T16:54:02;9.80;99.90
25554;DHT22;13446;50.926;5.332;2022-12-29T16:56:29;9.70;99.90
25554;DHT22;13446;50.926;5.332;2022-12-29T16:59:08;9.70;99.90
25554;DHT22;13446;50.926;5.332;2022-12-29T17:01:50;9.70;99.90
25554;DHT22;13446;50.926;5.332;2022-12-29T17:04:17;9.60;99.90
25554;DHT22;13446;50.926;5.332;2022-12-29T17:06:44;9.60;99.90
25554;DHT22;13446;50.926;5.332;2022-12-29T17:09:20;9.60;99.90
25554;DHT22;13446;50.926;5.332;2022-12-29T17:11:46;9.60;99.90
25554;DHT22;13446;50.926;5.332;2022-12-29T17:14:35;9.50;99.90
25554;DHT22;13446;50.926;5.332;2022-12-29T17:17:08;9.50;99.90
25554;DHT22;13446;50.926;5.332;2022-12-29T17:19:36;9.50;99.90
25554;DHT22;13446;50.926;5.332;2022-12-29T17:22:03;9.50;99.90
25554;DHT22;13446;50.926;5.332;2022-12-29T17:24:34;9.50;99.90
25554;DHT22;13446;50.926;5.332;2022-12-29T17:27:00;9.60;99.90
25554;DHT22;13446;50.926;5.332;2022-12-29T17:31:52;9.70;99.90
25554;DHT22;13446;50.926;5.332;2022-12-29T17:34:18;9.70;99.90
25554;DHT22;13446;50.926;5.332;2022-12-29T17:36:44;9.70;99.90
25554;DHT22;13446;50.926;5.332;2022-12-29T17:39:09;9.80;99.90
25554;DHT22;13446;50.926;5.332;2022-12-29T17:41:35;9.70;99.90
25554;DHT22;13446;50.926;5.332;2022-12-29T17:44:01;9.70;99.90
25554;DHT22;13446;50.926;5.332;2022-12-29T17:46:27;9.60;99.90
25554;DHT22;13446;50.926;5.332;2022-12-29T17:48:55;9.70;99.90
25554;DHT22;13446;50.926;5.332;2022-12-29T17:51:21;9.80;99.90
25554;DHT22;13446;50.926;5.332;2022-12-29T17:53:47;9.70;99.90
25554;DHT22;13446;50.926;5.332;2022-12-29T17:56:16;9.60;99.90
25554;DHT22;13446;50.926;5.332;2022-12-29T17:58:42;9.60;99.90
25554;DHT22;13446;50.926;5.332;2022-12-29T18:01:08;9.50;99.90
25554;DHT22;13446;50.926;5.332;2022-12-29T18:03:38;9.50;99.90
25554;DHT22;13446;50.926;5.332;2022-12-29T18:06:04;9.50;99.90
25554;DHT22;13446;50.926;5.332;2022-12-29T18:08:35;9.50;99.90
25554;DHT22;13446;50.926;5.332;2022-12-29T18:11:02;9.60;99.90
25554;DHT22;13446;50.926;5.332;2022-12-29T18:13:29;9.50;99.90
25554;DHT22;13446;50.926;5.332;2022-12-29T18:15:55;9.40;99.90
25554;DHT22;13446;50.926;5.332;2022-12-29T18:18:22;9.40;99.90
25554;DHT22;13446;50.926;5.332;2022-12-29T18:20:50;9.30;99.90
25554;DHT22;13446;50.926;5.332;2022-12-29T18:23:23;9.30;99.90
25554;DHT22;13446;50.926;5.332;2022-12-29T18:25:51;9.30;99.90
25554;DHT22;13446;50.926;5.332;2022-12-29T18:28:17;9.30;99.90
25554;DHT22;13446;50.926;5.332;2022-12-29T18:30:43;9.10;99.90
25554;DHT22;13446;50.926;5.332;2022-12-29T18:33:12;9.10;99.90